Time;durP1;ratioP1;P1;durP2;ratioP2;P2;SDS_P1;SDS_P2;PMS_P1;PMS_P2;Temp;Humidity;BMP_temperature;BMP_pressure;BME280_temperature;BME280_humidity;BME280_pressure;Samples;Min_cycle;Max_cycle;Signal;HPM_P1;HPM_P2
2022/06/13 00:01:56;;;;;;;9.18;2.65;;;19.20;76.80;;;;;;5094894;28;20028;-76
2022/06/13 00:04:22;;;;;;;9.68;2.78;;;19.20;76.90;;;;;;5094952;28;20042;-76
2022/06/13 00:06:48;;;;;;;6.97;2.38;;;19.20;77.20;;;;;;5094816;28;20343;-76
2022/06/13 00:09:13;;;;;;;9.55;2.70;;;19.10;77.30;;;;;;5094635;28;20032;-77
2022/06/13 00:11:39;;;;;;;7.00;2.15;;;19.10;77.60;;;;;;5094560;28;20028;-76
2022/06/13 00:14:05;;;;;;;9.80;2.05;;;19.10;77.70;;;;;;5094833;28;20031;-76
2022/06/13 00:16:31;;;;;;;8.48;2.45;;;19.10;77.80;;;;;;5094775;28;20016;-76
2022/06/13 00:18:57;;;;;;;11.25;3.58;;;19.10;77.90;;;;;;5094719;28;20383;-76
2022/06/13 00:21:29;;;;;;;7.07;2.47;;;19.10;78.10;;;;;;5094324;28;20020;-76
2022/06/13 00:23:55;;;;;;;10.10;2.85;;;19.10;78.30;;;;;;5094787;28;20105;-76
2022/06/13 00:26:24;;;;;;;9.02;2.70;;;19.10;78.40;;;;;;5094250;28;20067;-76
2022/06/13 00:28:52;;;;;;;7.78;2.55;;;19.10;78.50;;;;;;5093728;28;20040;-76
2022/06/13 00:31:17;;;;;;;9.90;3.15;;;19.00;78.60;;;;;;5094263;28;20020;-76
2022/06/13 00:33:43;;;;;;;6.75;2.28;;;19.10;78.80;;;;;;5094179;28;20020;-76
2022/06/13 00:36:09;;;;;;;7.90;2.08;;;19.00;79.00;;;;;;5094275;28;20066;-76
2022/06/13 00:38:37;;;;;;;8.00;3.00;;;19.00;79.10;;;;;;5094365;28;20020;-75
2022/06/13 00:41:10;;;;;;;6.88;1.90;;;19.00;79.10;;;;;;5094025;28;20079;-76
2022/06/13 00:43:38;;;;;;;7.57;1.83;;;19.00;79.10;;;;;;5094049;28;20464;-76
2022/06/13 00:46:25;;;;;;;11.27;2.75;;;19.00;79.00;;;;;;5093623;28;20123;-76
2022/06/13 00:49:01;;;;;;;8.15;2.28;;;19.00;78.80;;;;;;5094169;28;20040;-76
2022/06/13 00:51:30;;;;;;;8.80;3.22;;;18.90;78.90;;;;;;5093984;28;20458;-76
2022/06/13 00:53:56;;;;;;;7.50;2.38;;;18.90;79.10;;;;;;5093582;28;20464;-75
2022/06/13 00:56:25;;;;;;;7.30;2.38;;;18.80;79.10;;;;;;5093802;28;20035;-76
2022/06/13 00:58:58;;;;;;;9.52;3.00;;;18.80;79.20;;;;;;5093782;28;20031;-76
2022/06/13 01:01:26;;;;;;;10.55;3.13;;;18.70;79.50;;;;;;5093792;28;20031;-76
2022/06/13 01:03:51;;;;;;;10.30;3.15;;;18.70;79.70;;;;;;5093552;28;20043;-75
2022/06/13 01:06:18;;;;;;;7.45;2.83;;;18.70;79.80;;;;;;5093425;28;20131;-76
2022/06/13 01:08:44;;;;;;;8.02;2.35;;;18.70;79.80;;;;;;5093757;28;20138;-76
2022/06/13 01:11:19;;;;;;;11.25;3.20;;;18.70;79.90;;;;;;5093550;28;20028;-76
2022/06/13 01:14:12;;;;;;;10.32;3.33;;;18.80;80.70;;;;;;5093691;28;20025;-76
2022/06/13 01:16:53;;;;;;;7.85;2.45;;;18.80;80.10;;;;;;5093574;28;20031;-76
2022/06/13 01:19:42;;;;;;;5.30;2.13;;;18.80;80.00;;;;;;5093148;28;20024;-76
2022/06/13 01:22:24;;;;;;;8.80;2.90;;;18.80;80.10;;;;;;5093507;28;20458;-75
2022/06/13 01:25:15;;;;;;;9.20;2.47;;;18.80;80.20;;;;;;5093751;28;20039;-76
2022/06/13 01:27:58;;;;;;;9.50;2.58;;;18.80;80.30;;;;;;5093421;28;20320;-76
2022/06/13 01:30:54;;;;;;;11.52;3.33;;;18.80;80.30;;;;;;5093270;28;20372;-76
2022/06/13 01:33:29;;;;;;;8.50;2.53;;;18.80;80.40;;;;;;5093482;28;20024;-76
2022/06/13 01:36:21;;;;;;;8.77;2.78;;;18.90;80.50;;;;;;5093510;28;20024;-76
2022/06/13 01:39:22;;;;;;;9.10;3.13;;;18.90;80.50;;;;;;5093212;28;20081;-75
2022/06/13 01:42:03;;;;;;;10.73;2.80;;;18.90;80.60;;;;;;5094651;28;20066;-75
2022/06/13 01:45:06;;;;;;;8.98;2.75;;;18.90;80.60;;;;;;5097444;28;20040;-75
2022/06/13 01:47:55;;;;;;;8.57;2.80;;;18.90;80.80;;;;;;5097676;28;20085;-75
2022/06/13 01:50:39;;;;;;;11.77;3.25;;;18.90;81.00;;;;;;5097451;28;20040;-76
2022/06/13 01:53:15;;;;;;;7.57;3.15;;;18.90;81.10;;;;;;5097447;28;20028;-75
2022/06/13 01:56:04;;;;;;;10.68;3.08;;;18.90;81.10;;;;;;5097568;28;20035;-76
2022/06/13 01:58:37;;;;;;;9.73;3.33;;;18.90;81.20;;;;;;5097592;28;20027;-76
2022/06/13 02:01:09;;;;;;;10.60;3.45;;;18.90;81.40;;;;;;5097270;28;20016;-76
2022/06/13 02:03:43;;;;;;;12.68;3.15;;;18.90;81.60;;;;;;5097350;28;20043;-76
2022/06/13 02:06:31;;;;;;;10.07;3.05;;;18.90;81.70;;;;;;5096843;28;20024;-75
2022/06/13 02:09:15;;;;;;;6.55;2.85;;;18.90;81.80;;;;;;5097432;28;20036;-76
2022/06/13 02:11:58;;;;;;;10.50;3.20;;;18.90;81.90;;;;;;5097280;28;20439;-76
2022/06/13 02:14:36;;;;;;;9.60;2.80;;;18.90;82.00;;;;;;5096875;28;20057;-76
2022/06/13 02:17:13;;;;;;;7.10;3.05;;;18.90;82.20;;;;;;5097219;28;20016;-76
2022/06/13 02:19:56;;;;;;;9.77;3.00;;;18.90;82.20;;;;;;5096885;28;20027;-76
2022/06/13 02:22:40;;;;;;;6.03;3.00;;;18.90;82.50;;;;;;5097159;28;20344;-76
2022/06/13 02:25:23;;;;;;;11.02;3.20;;;18.90;82.70;;;;;;5096648;28;20040;-76
2022/06/13 02:27:55;;;;;;;8.90;3.20;;;18.90;82.90;;;;;;5096696;28;20021;-76
2022/06/13 02:30:26;;;;;;;10.82;3.88;;;18.90;83.00;;;;;;5096351;28;20483;-76
2022/06/13 02:32:56;;;;;;;9.13;3.28;;;18.90;83.20;;;;;;5096788;28;20051;-76
2022/06/13 02:35:30;;;;;;;9.52;3.70;;;18.90;83.60;;;;;;5096803;28;20023;-76
2022/06/13 02:38:07;;;;;;;11.50;3.25;;;18.90;83.70;;;;;;5096879;28;20357;-76
2022/06/13 02:40:45;;;;;;;12.05;3.95;;;18.90;83.90;;;;;;5096625;28;20135;-75
2022/06/13 02:43:20;;;;;;;8.40;3.40;;;18.90;84.10;;;;;;5096230;28;20027;-75
2022/06/13 02:46:31;;;;;;;8.40;3.28;;;18.90;84.30;;;;;;5096152;28;20059;-75
2022/06/13 02:49:10;;;;;;;10.27;3.22;;;18.80;84.30;;;;;;5096169;28;20498;-75
2022/06/13 02:51:45;;;;;;;11.80;3.85;;;18.80;84.20;;;;;;5095742;28;20024;-75
2022/06/13 02:54:37;;;;;;;9.32;3.50;;;18.80;84.40;;;;;;5096140;28;20535;-76
2022/06/13 02:57:31;;;;;;;12.52;4.20;;;18.80;84.50;;;;;;5071863;28;20063;-75
2022/06/13 03:00:06;;;;;;;8.50;3.40;;;18.80;84.70;;;;;;5096119;28;20371;-75
2022/06/13 03:02:52;;;;;;;10.65;4.32;;;18.80;84.90;;;;;;5095979;28;20048;-76
2022/06/13 03:05:46;;;;;;;10.90;4.05;;;18.80;85.10;;;;;;5096154;28;20020;-76
2022/06/13 03:08:29;;;;;;;12.27;4.57;;;18.80;85.20;;;;;;5095981;28;20020;-76
2022/06/13 03:11:23;;;;;;;14.00;4.25;;;18.70;85.70;;;;;;5095924;28;20496;-76
2022/06/13 03:14:06;;;;;;;8.98;3.40;;;18.70;86.00;;;;;;5096060;28;20024;-76
2022/06/13 03:16:40;;;;;;;12.98;3.92;;;18.70;86.00;;;;;;5095785;28;20431;-76
2022/06/13 03:19:13;;;;;;;11.63;4.03;;;18.70;85.90;;;;;;5095697;28;20379;-76
2022/06/13 03:21:52;;;;;;;11.38;4.65;;;18.70;86.00;;;;;;5095425;28;20468;-76
2022/06/13 03:24:27;;;;;;;11.07;3.67;;;18.70;86.00;;;;;;5095974;28;20103;-76
2022/06/13 03:26:58;;;;;;;15.05;4.35;;;18.70;86.00;;;;;;5095486;28;20032;-76
2022/06/13 03:29:40;;;;;;;9.30;3.63;;;18.70;86.10;;;;;;5095478;28;20393;-76
2022/06/13 03:32:19;;;;;;;7.55;3.90;;;18.70;86.20;;;;;;5095433;28;20357;-76
2022/06/13 03:34:50;;;;;;;12.23;3.65;;;18.70;86.30;;;;;;5095427;28;20032;-76
2022/06/13 03:37:21;;;;;;;11.45;4.03;;;18.70;86.30;;;;;;5095716;28;20028;-76
2022/06/13 03:40:00;;;;;;;9.90;3.90;;;18.70;86.20;;;;;;5095443;28;20082;-76
2022/06/13 03:42:41;;;;;;;12.88;3.80;;;18.60;86.30;;;;;;5095537;28;20478;-77
2022/06/13 03:45:21;;;;;;;11.57;3.72;;;18.60;86.30;;;;;;5095442;28;20056;-77
2022/06/13 03:47:52;;;;;;;9.85;3.50;;;18.60;86.40;;;;;;5095348;28;20031;-76
2022/06/13 03:50:29;;;;;;;10.98;4.20;;;18.60;86.60;;;;;;5094743;28;20032;-76
2022/06/13 03:53:04;;;;;;;11.32;4.20;;;18.60;86.70;;;;;;5095362;28;20103;-76
2022/06/13 03:55:48;;;;;;;12.57;4.28;;;18.50;86.60;;;;;;5095192;28;20479;-76
2022/06/13 03:58:35;;;;;;;9.52;4.32;;;18.50;86.70;;;;;;5094946;28;20035;-76
2022/06/13 04:01:09;;;;;;;10.65;4.35;;;18.50;86.70;;;;;;5094719;28;20028;-76
2022/06/13 04:03:36;;;;;;;10.13;4.68;;;18.50;86.90;;;;;;5093944;28;20109;-76
2022/06/13 04:06:26;;;;;;;14.48;5.07;;;18.50;86.80;;;;;;5095003;28;20391;-76
2022/06/13 04:08:52;;;;;;;12.48;5.13;;;18.50;86.80;;;;;;5094552;28;20024;-76
2022/06/13 04:11:20;;;;;;;15.55;6.65;;;18.40;86.70;;;;;;5094872;28;20028;-76
2022/06/13 04:14:07;;;;;;;16.27;5.75;;;18.40;86.80;;;;;;5094904;28;20016;-76
2022/06/13 04:16:36;;;;;;;12.45;5.90;;;18.30;87.00;;;;;;5094541;28;20104;-76
2022/06/13 04:19:21;;;;;;;11.30;5.50;;;18.30;87.30;;;;;;5094449;28;20028;-76
2022/06/13 04:22:15;;;;;;;13.38;5.88;;;18.10;87.60;;;;;;5094499;28;20028;-76
2022/06/13 04:24:46;;;;;;;14.98;6.03;;;18.10;87.90;;;;;;5094458;28;20480;-76
2022/06/13 04:27:26;;;;;;;15.35;5.57;;;18.10;88.10;;;;;;5094238;28;20028;-76
2022/06/13 04:30:14;;;;;;;9.85;5.13;;;18.10;88.20;;;;;;5094176;28;20062;-76
2022/06/13 04:33:06;;;;;;;11.05;5.22;;;18.10;88.50;;;;;;5094611;28;20043;-76
2022/06/13 04:35:34;;;;;;;9.27;4.65;;;18.10;88.70;;;;;;5085784;28;20127;-76
2022/06/13 04:38:02;;;;;;;16.10;5.55;;;18.10;88.90;;;;;;5094078;28;20046;-76
2022/06/13 04:40:29;;;;;;;10.27;4.63;;;18.20;89.10;;;;;;5094055;28;20028;-76
2022/06/13 04:42:56;;;;;;;17.88;6.15;;;18.20;89.20;;;;;;5094365;28;20032;-76
2022/06/13 04:45:30;;;;;;;14.73;5.60;;;18.20;89.40;;;;;;5093791;28;20048;-76
2022/06/13 04:47:57;;;;;;;15.18;5.47;;;18.10;89.70;;;;;;5094032;28;20433;-76
2022/06/13 04:50:34;;;;;;;15.05;5.18;;;18.10;90.00;;;;;;5093885;28;20051;-76
2022/06/13 04:53:04;;;;;;;12.95;5.40;;;18.10;90.20;;;;;;5093910;28;20059;-76
2022/06/13 04:55:41;;;;;;;15.50;5.75;;;18.00;90.30;;;;;;5093736;28;20031;-76
2022/06/13 04:58:30;;;;;;;15.05;5.97;;;18.00;90.40;;;;;;5093690;28;20059;-76
2022/06/13 05:01:04;;;;;;;17.45;5.80;;;18.00;90.60;;;;;;5093580;28;20024;-76
2022/06/13 05:03:38;;;;;;;14.10;5.68;;;18.00;90.70;;;;;;5093614;28;20027;-76
2022/06/13 05:06:33;;;;;;;14.50;5.65;;;18.00;90.80;;;;;;5093661;28;20035;-76
2022/06/13 05:09:06;;;;;;;16.98;5.63;;;18.00;90.90;;;;;;5093602;28;20471;-76
2022/06/13 05:11:38;;;;;;;19.15;6.15;;;18.00;91.10;;;;;;5093724;28;20365;-76
2022/06/13 05:14:14;;;;;;;14.10;5.30;;;17.90;91.20;;;;;;5093637;28;20048;-76
2022/06/13 05:16:54;;;;;;;15.00;5.85;;;17.90;91.30;;;;;;5093803;28;20040;-76
2022/06/13 05:19:59;;;;;;;17.20;5.20;;;17.90;91.40;;;;;;5093659;28;20099;-76
2022/06/13 05:22:31;;;;;;;12.48;5.65;;;17.90;91.60;;;;;;5093257;28;20059;-76
2022/06/13 05:24:59;;;;;;;16.85;5.20;;;17.90;91.80;;;;;;5093362;28;20091;-77
2022/06/13 05:27:25;;;;;;;12.95;5.03;;;17.90;91.90;;;;;;5093556;28;20414;-76
2022/06/13 05:29:50;;;;;;;18.77;6.07;;;17.90;92.00;;;;;;5093601;28;20092;-76
2022/06/13 05:32:20;;;;;;;18.52;5.70;;;17.90;92.10;;;;;;5093313;28;20024;-76
2022/06/13 05:34:47;;;;;;;15.13;5.85;;;17.90;92.30;;;;;;5093398;28;20081;-76
2022/06/13 05:37:13;;;;;;;12.95;5.07;;;17.80;92.30;;;;;;5093404;28;20031;-76
2022/06/13 05:39:39;;;;;;;16.48;5.20;;;17.90;92.40;;;;;;5093090;28;20032;-76
2022/06/13 05:42:05;;;;;;;18.00;6.00;;;17.90;92.60;;;;;;5092827;28;20375;-76
2022/06/13 05:44:31;;;;;;;20.63;5.88;;;17.90;92.60;;;;;;5092884;28;20052;-76
2022/06/13 05:46:57;;;;;;;16.38;5.53;;;17.90;92.50;;;;;;5092934;28;20032;-77
2022/06/13 05:49:22;;;;;;;15.45;6.00;;;17.80;92.60;;;;;;5093106;28;20046;-76
2022/06/13 05:51:48;;;;;;;19.70;6.97;;;17.80;92.70;;;;;;5093192;28;20022;-76
2022/06/13 05:54:14;;;;;;;15.25;5.35;;;17.80;92.70;;;;;;5092585;28;20028;-76
2022/06/13 05:56:40;;;;;;;19.90;5.88;;;17.80;92.80;;;;;;5092998;28;20032;-76
2022/06/13 05:59:06;;;;;;;17.48;5.40;;;17.70;92.90;;;;;;5092773;28;20044;-76
2022/06/13 06:01:34;;;;;;;16.48;5.90;;;17.70;92.90;;;;;;5092814;28;20119;-76
2022/06/13 06:03:59;;;;;;;16.13;5.80;;;17.70;92.90;;;;;;5092904;28;20032;-76
2022/06/13 06:06:27;;;;;;;15.75;5.80;;;17.70;92.70;;;;;;5092820;28;20375;-76
2022/06/13 06:08:54;;;;;;;13.48;5.78;;;17.70;92.70;;;;;;5092911;28;20028;-76
2022/06/13 06:11:21;;;;;;;12.40;4.57;;;17.70;92.60;;;;;;5093005;28;20127;-76
2022/06/13 06:13:47;;;;;;;12.60;4.45;;;17.80;92.40;;;;;;5092912;28;20028;-76
2022/06/13 06:16:16;;;;;;;11.75;4.15;;;17.80;92.10;;;;;;5092898;28;20031;-77
2022/06/13 06:18:43;;;;;;;11.80;4.35;;;17.90;91.80;;;;;;5092550;28;20115;-76
2022/06/13 06:21:09;;;;;;;11.90;4.50;;;17.90;91.50;;;;;;5092645;28;20032;-76
2022/06/13 06:23:35;;;;;;;13.73;4.07;;;17.90;91.40;;;;;;5092594;28;20023;-75
2022/06/13 06:26:02;;;;;;;15.60;4.50;;;18.10;91.10;;;;;;5093662;28;20052;-76
2022/06/13 06:28:28;;;;;;;12.82;3.40;;;18.10;90.90;;;;;;5096402;28;20028;-76
2022/06/13 06:30:56;;;;;;;11.30;3.13;;;18.20;90.40;;;;;;5096707;28;20035;-76
2022/06/13 06:33:22;;;;;;;12.82;2.70;;;18.20;90.00;;;;;;5096395;28;20046;-76
2022/06/13 06:35:48;;;;;;;7.95;2.03;;;18.30;89.30;;;;;;5096682;28;20032;-76
2022/06/13 06:38:15;;;;;;;9.95;2.15;;;18.30;87.40;;;;;;5096357;28;20411;-76
2022/06/13 06:40:41;;;;;;;7.60;2.33;;;18.30;85.20;;;;;;5096312;28;20089;-76
2022/06/13 06:43:07;;;;;;;8.52;2.67;;;18.20;85.20;;;;;;5096044;28;20024;-75
2022/06/13 06:45:33;;;;;;;8.65;2.38;;;18.20;85.80;;;;;;5095958;28;20123;-76
2022/06/13 06:47:59;;;;;;;9.32;2.67;;;18.20;86.10;;;;;;5096366;28;20044;-77
2022/06/13 06:50:29;;;;;;;12.23;2.47;;;18.20;86.00;;;;;;5095759;28;20071;-77
2022/06/13 06:52:55;;;;;;;6.65;2.55;;;18.30;85.70;;;;;;5096097;28;20476;-77
2022/06/13 07:01:18;;;;;;;9.48;2.30;;;18.30;86.20;;;;;;5053641;28;20028;-77
2022/06/13 07:03:44;;;;;;;12.63;2.47;;;18.40;86.20;;;;;;5053252;28;20420;-77
2022/06/13 07:06:11;;;;;;;8.50;2.38;;;18.40;85.40;;;;;;5074109;28;20028;-77
2022/06/13 07:08:37;;;;;;;7.65;2.20;;;18.50;85.40;;;;;;5095980;28;20055;-77
2022/06/13 07:13:51;;;;;;;9.00;2.78;;;18.60;84.50;;;;;;5096057;28;20042;-76
2022/06/13 07:16:17;;;;;;;12.48;2.20;;;18.60;84.00;;;;;;5095719;28;20471;-76
2022/06/13 07:18:45;;;;;;;10.43;2.13;;;18.70;83.80;;;;;;5095776;28;20050;-76
2022/06/13 07:21:11;;;;;;;9.70;2.10;;;18.70;83.80;;;;;;5095714;28;20123;-76
2022/06/13 07:23:38;;;;;;;9.18;1.98;;;18.70;83.40;;;;;;5095606;28;20040;-77
2022/06/13 07:26:04;;;;;;;8.30;2.10;;;18.60;83.00;;;;;;5095506;28;20058;-76
2022/06/13 07:28:29;;;;;;;8.38;1.60;;;18.60;82.60;;;;;;5095724;28;20051;-76
2022/06/13 07:30:56;;;;;;;9.23;1.65;;;18.70;82.60;;;;;;5095666;28;20024;-76
2022/06/13 07:33:21;;;;;;;9.35;2.30;;;18.70;82.80;;;;;;5095738;28;20020;-76
2022/06/13 07:35:47;;;;;;;8.23;1.60;;;18.80;83.00;;;;;;5094961;28;20028;-77
2022/06/13 07:38:19;;;;;;;10.38;1.98;;;18.80;82.00;;;;;;5094271;28;20062;-76
2022/06/13 07:40:47;;;;;;;6.37;1.70;;;18.80;81.60;;;;;;5095524;28;20032;-77
2022/06/13 07:43:30;;;;;;;7.97;1.40;;;18.90;80.70;;;;;;5095179;28;20044;-76
2022/06/13 07:45:57;;;;;;;7.60;1.17;;;19.00;80.00;;;;;;5094571;28;20048;-76
2022/06/13 07:48:24;;;;;;;5.95;1.30;;;19.00;79.70;;;;;;5095188;28;20368;-77
2022/06/13 07:50:49;;;;;;;9.57;1.60;;;19.10;79.40;;;;;;5095180;28;20052;-77
2022/06/13 07:53:15;;;;;;;5.13;1.08;;;19.20;79.20;;;;;;5095202;28;20487;-75
2022/06/13 07:55:41;;;;;;;9.57;1.40;;;19.40;78.90;;;;;;5095171;28;20027;-75
2022/06/13 07:58:15;;;;;;;4.55;0.88;;;19.40;76.20;;;;;;5095075;28;20045;-76
2022/06/13 08:00:41;;;;;;;4.30;0.88;;;19.40;76.20;;;;;;5095046;28;20046;-76
2022/06/13 08:03:06;;;;;;;5.93;1.05;;;19.40;74.50;;;;;;5094798;28;20016;-75
2022/06/13 08:05:32;;;;;;;4.57;0.68;;;19.40;73.90;;;;;;5094900;28;20020;-76
2022/06/13 08:07:59;;;;;;;5.20;0.80;;;19.50;74.00;;;;;;5094340;28;20365;-76
2022/06/13 08:10:24;;;;;;;7.32;0.70;;;19.60;74.20;;;;;;5094675;28;20040;-75
2022/06/13 08:12:50;;;;;;;7.18;0.57;;;19.60;73.80;;;;;;5094804;28;20055;-75
2022/06/13 08:15:16;;;;;;;5.03;0.70;;;19.50;74.20;;;;;;5094587;28;20034;-76
2022/06/13 08:17:42;;;;;;;3.75;0.45;;;19.40;73.30;;;;;;5094836;28;20074;-76
2022/06/13 08:20:10;;;;;;;3.95;0.50;;;19.40;74.30;;;;;;5094290;28;20563;-76
2022/06/13 08:22:47;;;;;;;6.60;0.70;;;19.50;74.20;;;;;;5094556;28;20039;-76
2022/06/13 08:25:18;;;;;;;5.30;0.90;;;19.60;74.80;;;;;;5094513;28;20024;-76
2022/06/13 08:27:44;;;;;;;4.70;0.63;;;19.60;74.10;;;;;;5094676;28;20024;-76
2022/06/13 08:30:10;;;;;;;4.68;0.50;;;19.50;74.80;;;;;;5094450;28;20097;-76
2022/06/13 08:32:36;;;;;;;3.60;0.90;;;19.50;75.10;;;;;;5094155;28;20066;-76
2022/06/13 08:35:02;;;;;;;4.38;0.57;;;19.50;75.40;;;;;;5094450;28;20048;-76
2022/06/13 08:37:28;;;;;;;4.32;0.57;;;19.60;74.30;;;;;;5094544;28;20424;-76
2022/06/13 08:39:54;;;;;;;5.38;0.60;;;19.70;72.90;;;;;;5093998;28;20067;-76
2022/06/13 08:42:28;;;;;;;2.72;0.50;;;19.90;69.40;;;;;;5094281;28;20089;-76
2022/06/13 08:45:09;;;;;;;5.97;0.50;;;19.90;69.40;;;;;;5093910;28;20127;-76
2022/06/13 08:47:54;;;;;;;4.00;0.60;;;19.90;69.30;;;;;;5093715;28;20028;-76
2022/06/13 08:50:44;;;;;;;3.63;0.43;;;19.80;69.00;;;;;;5093141;28;20475;-77
2022/06/13 08:53:21;;;;;;;5.05;0.60;;;19.60;70.40;;;;;;5093780;28;20519;-77
2022/06/13 08:56:04;;;;;;;3.58;0.43;;;19.50;72.10;;;;;;5093874;28;20034;-76
2022/06/13 08:58:53;;;;;;;;;;;19.40;73.20;;;;;;5094136;28;20046;-76
2022/06/13 09:01:41;;;;;;;6.90;1.42;;;19.60;76.80;;;;;;5093918;28;19911;-76
2022/06/13 09:04:23;;;;;;;5.55;0.57;;;19.80;75.30;;;;;;5093027;28;20509;-76
2022/06/13 09:06:54;;;;;;;4.20;0.82;;;19.90;73.30;;;;;;5093386;28;20024;-76
2022/06/13 09:09:41;;;;;;;3.78;0.50;;;20.10;73.70;;;;;;5093248;28;20031;-75
2022/06/13 09:12:15;;;;;;;2.63;0.60;;;20.20;71.40;;;;;;5093656;28;20020;-76
2022/06/13 09:15:00;;;;;;;6.15;0.50;;;20.20;70.40;;;;;;5093491;28;20036;-75
2022/06/13 09:17:57;;;;;;;3.90;0.63;;;20.20;69.30;;;;;;5093219;28;20088;-76
2022/06/13 09:20:32;;;;;;;2.75;0.30;;;20.10;67.10;;;;;;5071791;28;20535;-76
2022/06/13 09:23:10;;;;;;;5.15;0.40;;;20.20;66.50;;;;;;5093678;28;20093;-77
2022/06/13 09:25:53;;;;;;;3.70;0.40;;;20.30;67.00;;;;;;5093642;28;20020;-76
2022/06/13 09:28:40;;;;;;;5.53;0.40;;;20.40;67.80;;;;;;5093206;28;20383;-77
2022/06/13 09:31:09;;;;;;;5.22;0.40;;;20.50;67.70;;;;;;5093401;28;20054;-77
2022/06/13 09:33:42;;;;;;;5.78;0.50;;;20.50;69.40;;;;;;5093184;28;20024;-76
2022/06/13 09:36:26;;;;;;;8.30;0.73;;;20.50;71.00;;;;;;5093343;28;20020;-77
2022/06/13 09:38:58;;;;;;;5.75;0.80;;;20.70;71.30;;;;;;5093154;28;20028;-77
2022/06/13 09:41:42;;;;;;;;;;;20.70;68.80;;;;;;5093903;28;20047;-76
2022/06/13 09:44:19;;;;;;;4.05;0.73;;;20.60;67.00;;;;;;5093237;28;19904;-76
2022/06/13 09:46:56;;;;;;;5.50;0.50;;;20.60;67.60;;;;;;5092953;28;20060;-77
2022/06/13 09:49:40;;;;;;;4.57;0.63;;;20.50;66.20;;;;;;5093343;28;20032;-77
2022/06/13 09:52:15;;;;;;;2.97;0.35;;;20.30;66.60;;;;;;5092822;28;20028;-77
2022/06/13 09:54:55;;;;;;;6.00;0.50;;;20.20;67.70;;;;;;5092948;28;20031;-77
2022/06/13 09:57:24;;;;;;;5.00;0.47;;;20.40;68.50;;;;;;5092855;28;20481;-77
2022/06/13 10:00:09;;;;;;;5.78;0.40;;;20.50;68.90;;;;;;5092833;28;20475;-77
2022/06/13 10:03:10;;;;;;;3.40;0.50;;;20.70;70.50;;;;;;5096537;28;20111;-77
2022/06/13 10:05:45;;;;;;;6.22;0.40;;;21.00;67.90;;;;;;5096850;28;20028;-76
2022/06/13 10:08:45;;;;;;;5.88;0.63;;;21.20;66.30;;;;;;5097094;28;20062;-77
2022/06/13 10:11:29;;;;;;;8.18;0.85;;;21.30;64.40;;;;;;5096601;28;20035;-77
2022/06/13 10:14:33;;;;;;;4.00;0.40;;;21.20;62.80;;;;;;5097028;28;20024;-76
2022/06/13 10:17:16;;;;;;;5.55;0.60;;;20.90;62.60;;;;;;5095819;28;20103;-77
2022/06/13 10:19:50;;;;;;;3.55;0.50;;;20.60;64.40;;;;;;5096463;28;20051;-77
2022/06/13 10:22:29;;;;;;;7.47;0.40;;;20.30;65.60;;;;;;5096700;28;20040;-76
2022/06/13 10:25:31;;;;;;;6.90;0.50;;;20.30;66.20;;;;;;5096875;28;20039;-76
2022/06/13 10:28:03;;;;;;;3.55;0.60;;;20.50;67.80;;;;;;5096251;28;20031;-77
2022/06/13 10:30:39;;;;;;;8.00;0.77;;;20.40;65.10;;;;;;5096259;28;20364;-76
2022/06/13 10:33:23;;;;;;;6.35;0.52;;;20.30;65.50;;;;;;5096488;28;20027;-76
2022/06/13 10:35:58;;;;;;;4.00;0.45;;;20.20;65.80;;;;;;5096213;28;20101;-76
2022/06/13 10:38:49;;;;;;;2.42;0.30;;;20.10;65.70;;;;;;5096290;28;20084;-76
2022/06/13 10:41:15;;;;;;;5.38;0.40;;;19.80;66.30;;;;;;5096294;28;20120;-76
2022/06/13 10:43:42;;;;;;;8.52;0.60;;;19.80;66.50;;;;;;5096081;28;20028;-77
2022/06/13 10:46:11;;;;;;;3.13;0.30;;;19.90;66.20;;;;;;5095842;28;20044;-77
2022/06/13 10:48:46;;;;;;;2.47;0.40;;;20.00;65.60;;;;;;5095818;28;20485;-78
2022/06/13 10:51:12;;;;;;;4.72;0.50;;;20.20;64.60;;;;;;5096028;28;20061;-78
2022/06/13 10:53:44;;;;;;;3.60;0.30;;;20.50;65.50;;;;;;5095809;28;20024;-77
2022/06/13 10:56:39;;;;;;;2.78;0.30;;;20.40;63.90;;;;;;5096193;28;20031;-76
2022/06/13 10:59:04;;;;;;;3.08;0.40;;;20.30;64.60;;;;;;5096069;28;20103;-76
2022/06/13 11:01:31;;;;;;;5.25;0.65;;;20.20;64.00;;;;;;5095885;28;20494;-76
2022/06/13 11:04:02;;;;;;;4.43;0.75;;;20.30;64.90;;;;;;5095883;28;20032;-76
2022/06/13 11:06:38;;;;;;;3.53;0.40;;;20.40;64.50;;;;;;5094737;28;20027;-83
2022/06/13 11:09:19;;;;;;;2.35;0.30;;;20.60;65.30;;;;;;5092283;28;20028;-79
2022/06/13 11:11:45;;;;;;;3.40;0.40;;;20.90;63.60;;;;;;5093614;28;20054;-83
2022/06/13 11:14:34;;;;;;;5.82;0.50;;;21.10;62.70;;;;;;5092961;28;20482;-84
2022/06/13 11:22:43;;;;;;;3.50;0.40;;;21.00;61.80;;;;;;5093918;28;20038;-75
2022/06/13 11:25:20;;;;;;;5.30;0.30;;;20.90;62.60;;;;;;5094504;28;20032;-76
2022/06/13 11:27:59;;;;;;;3.55;0.50;;;20.80;64.60;;;;;;5093926;28;20105;-74
2022/06/13 11:30:28;;;;;;;5.25;0.50;;;20.90;63.90;;;;;;5091411;28;20036;-73
2022/06/13 11:33:05;;;;;;;4.82;0.63;;;21.00;62.70;;;;;;5093240;28;20017;-72
2022/06/13 11:35:41;;;;;;;2.70;0.30;;;21.00;61.30;;;;;;5091666;28;20092;-74
2022/06/13 11:38:14;;;;;;;3.78;0.30;;;21.00;59.80;;;;;;5093991;28;20048;-74
2022/06/13 11:40:41;;;;;;;2.42;0.30;;;21.00;59.70;;;;;;5093930;28;20024;-75
2022/06/13 11:43:18;;;;;;;3.83;0.20;;;21.00;59.90;;;;;;5093727;28;20034;-76
2022/06/13 11:45:53;;;;;;;5.05;0.52;;;21.00;59.40;;;;;;5093562;28;20043;-74
2022/06/13 11:48:19;;;;;;;3.85;0.32;;;21.10;60.40;;;;;;5093569;28;20030;-75
2022/06/13 11:50:45;;;;;;;3.33;0.25;;;21.30;58.80;;;;;;5093424;28;20036;-75
2022/06/13 11:55:59;;;;;;;3.17;0.68;;;21.50;60.60;;;;;;5092575;28;20078;-76
2022/06/13 11:58:28;;;;;;;3.30;0.30;;;21.60;58.80;;;;;;5092758;28;20108;-78
2022/06/13 12:01:03;;;;;;;4.18;0.43;;;21.50;57.80;;;;;;5093062;28;20046;-77
2022/06/13 12:03:29;;;;;;;1.95;0.10;;;21.40;57.50;;;;;;5091476;28;20020;-76
2022/06/13 12:06:11;;;;;;;2.47;0.20;;;21.20;56.30;;;;;;5092965;28;20495;-76
2022/06/13 12:08:37;;;;;;;5.30;0.52;;;21.10;57.70;;;;;;5092827;28;20019;-76
2022/06/13 12:11:22;;;;;;;3.05;0.30;;;21.30;57.90;;;;;;5091865;28;20036;-75
2022/06/13 12:13:49;;;;;;;4.97;0.20;;;21.40;56.50;;;;;;5092446;28;20111;-75
2022/06/13 12:16:34;;;;;;;4.65;0.30;;;21.60;57.30;;;;;;5092523;28;20055;-75
2022/06/13 12:19:21;;;;;;;2.65;0.25;;;22.00;57.60;;;;;;5092131;28;20036;-75
2022/06/13 12:22:04;;;;;;;1.38;0.20;;;22.20;59.00;;;;;;5092777;28;20026;-75
2022/06/13 12:25:13;;;;;;;2.08;0.20;;;22.20;52.90;;;;;;5089309;28;20032;-73
2022/06/13 12:27:54;;;;;;;1.75;0.20;;;22.20;51.60;;;;;;5091238;28;20541;-76
2022/06/13 12:30:22;;;;;;;2.25;0.40;;;22.10;50.20;;;;;;5092751;28;20102;-76
2022/06/13 12:32:59;;;;;;;4.55;0.40;;;22.20;50.50;;;;;;5092293;28;20024;-76
2022/06/13 12:35:53;;;;;;;2.95;0.30;;;22.30;51.60;;;;;;5091747;28;20052;-77
2022/06/13 12:38:30;;;;;;;2.58;0.28;;;22.50;54.00;;;;;;5091601;28;20104;-78
2022/06/13 12:41:04;;;;;;;4.38;0.30;;;22.60;52.50;;;;;;5090859;28;20106;-75
2022/06/13 12:43:33;;;;;;;2.97;0.30;;;22.70;52.50;;;;;;5089411;28;20357;-74
2022/06/13 12:46:29;;;;;;;2.33;0.30;;;22.60;51.60;;;;;;5092053;28;20132;-74
2022/06/13 12:49:04;;;;;;;4.30;0.30;;;22.60;51.50;;;;;;5092688;28;20118;-74
2022/06/13 12:51:29;;;;;;;2.88;0.38;;;22.60;51.90;;;;;;5092072;28;20378;-76
2022/06/13 12:54:04;;;;;;;4.13;0.40;;;22.80;53.80;;;;;;5092105;28;20020;-75
2022/06/13 12:56:44;;;;;;;6.97;0.73;;;22.80;53.30;;;;;;5091681;28;20081;-74
2022/06/13 12:59:19;;;;;;;3.10;0.30;;;22.60;53.00;;;;;;5093007;28;20423;-75
2022/06/13 13:02:19;;;;;;;3.08;0.35;;;22.50;54.30;;;;;;5090779;28;20035;-76
2022/06/13 13:05:17;;;;;;;4.63;0.68;;;22.40;55.10;;;;;;5087020;28;20083;-76
2022/06/13 13:07:49;;;;;;;4.70;0.70;;;22.60;55.50;;;;;;5090217;28;20100;-74
2022/06/13 13:10:33;;;;;;;3.42;0.40;;;22.70;55.10;;;;;;5092308;28;20028;-75
2022/06/13 13:13:13;;;;;;;3.30;0.30;;;22.80;53.70;;;;;;5091722;28;20624;-79
2022/06/13 13:16:00;;;;;;;5.78;0.40;;;23.00;55.10;;;;;;5091943;28;20043;-77
2022/06/13 13:18:51;;;;;;;4.80;0.80;;;23.10;53.10;;;;;;5092185;28;20027;-77
2022/06/13 13:21:37;;;;;;;4.35;0.50;;;23.10;53.00;;;;;;5091855;28;20093;-77
2022/06/13 13:24:30;;;;;;;6.95;0.40;;;23.20;53.70;;;;;;5092889;28;20082;-77
2022/06/13 13:27:07;;;;;;;3.13;0.65;;;22.90;53.00;;;;;;5092798;28;20031;-77
2022/06/13 13:30:01;;;;;;;2.25;0.43;;;22.50;52.80;;;;;;5092523;28;20028;-77
2022/06/13 13:32:50;;;;;;;2.40;0.50;;;22.10;53.10;;;;;;5092857;28;20463;-77
2022/06/13 13:35:42;;;;;;;4.22;0.40;;;21.80;53.70;;;;;;5063680;28;20089;-77
2022/06/13 13:38:16;;;;;;;2.55;0.30;;;21.90;55.50;;;;;;5093057;28;20543;-77
2022/06/13 13:40:54;;;;;;;4.38;0.40;;;22.10;54.60;;;;;;5092891;28;20467;-77
2022/06/13 13:43:39;;;;;;;4.35;0.40;;;22.20;53.30;;;;;;5093198;28;20107;-77